sensor_id;sensor_type;location;lat;lon;timestamp;P1;durP1;ratioP1;P2;durP2;ratioP2
71790;SDS011;59638;52.126;5.434;2023-06-10T00:00:01;2.42;;;1.80;;
71790;SDS011;59638;52.126;5.434;2023-06-10T00:02:31;3.15;;;2.30;;
71790;SDS011;59638;52.126;5.434;2023-06-10T00:04:58;2.47;;;2.00;;
71790;SDS011;59638;52.126;5.434;2023-06-10T00:07:24;5.83;;;2.40;;
71790;SDS011;59638;52.126;5.434;2023-06-10T00:09:51;4.22;;;1.70;;
71790;SDS011;59638;52.126;5.434;2023-06-10T00:12:17;5.93;;;2.00;;
71790;SDS011;59638;52.126;5.434;2023-06-10T00:14:44;4.82;;;2.67;;
71790;SDS011;59638;52.126;5.434;2023-06-10T00:17:11;4.25;;;2.03;;
71790;SDS011;59638;52.126;5.434;2023-06-10T00:19:37;3.87;;;2.27;;
71790;SDS011;59638;52.126;5.434;2023-06-10T00:22:08;5.28;;;2.70;;
71790;SDS011;59638;52.126;5.434;2023-06-10T00:24:37;3.08;;;1.98;;
71790;SDS011;59638;52.126;5.434;2023-06-10T00:27:03;3.00;;;2.17;;
71790;SDS011;59638;52.126;5.434;2023-06-10T00:29:31;4.53;;;1.92;;
71790;SDS011;59638;52.126;5.434;2023-06-10T00:31:58;3.03;;;2.23;;
71790;SDS011;59638;52.126;5.434;2023-06-10T00:34:24;7.47;;;2.70;;
71790;SDS011;59638;52.126;5.434;2023-06-10T00:36:51;6.65;;;1.88;;
71790;SDS011;59638;52.126;5.434;2023-06-10T00:39:17;7.47;;;2.17;;
71790;SDS011;59638;52.126;5.434;2023-06-10T00:41:44;4.10;;;2.20;;
71790;SDS011;59638;52.126;5.434;2023-06-10T00:44:10;5.37;;;2.73;;
71790;SDS011;59638;52.126;5.434;2023-06-10T00:46:37;5.28;;;2.28;;
71790;SDS011;59638;52.126;5.434;2023-06-10T00:49:03;3.00;;;2.05;;
71790;SDS011;59638;52.126;5.434;2023-06-10T00:51:30;5.20;;;2.58;;
71790;SDS011;59638;52.126;5.434;2023-06-10T00:53:56;4.43;;;2.00;;
71790;SDS011;59638;52.126;5.434;2023-06-10T00:56:23;4.90;;;2.13;;
71790;SDS011;59638;52.126;5.434;2023-06-10T00:58:51;5.15;;;2.20;;
71790;SDS011;59638;52.126;5.434;2023-06-10T01:01:18;3.53;;;2.25;;
71790;SDS011;59638;52.126;5.434;2023-06-10T01:03:46;4.82;;;2.03;;
71790;SDS011;59638;52.126;5.434;2023-06-10T01:06:18;3.70;;;1.80;;
71790;SDS011;59638;52.126;5.434;2023-06-10T01:08:57;4.43;;;2.37;;
71790;SDS011;59638;52.126;5.434;2023-06-10T01:11:36;4.70;;;2.40;;
71790;SDS011;59638;52.126;5.434;2023-06-10T01:14:12;4.93;;;2.38;;
71790;SDS011;59638;52.126;5.434;2023-06-10T01:16:40;4.32;;;2.22;;
71790;SDS011;59638;52.126;5.434;2023-06-10T01:19:07;3.72;;;2.60;;
71790;SDS011;59638;52.126;5.434;2023-06-10T01:21:33;5.80;;;2.03;;
71790;SDS011;59638;52.126;5.434;2023-06-10T01:24:01;4.57;;;2.50;;
71790;SDS011;59638;52.126;5.434;2023-06-10T01:26:29;4.93;;;2.22;;
71790;SDS011;59638;52.126;5.434;2023-06-10T01:28:59;3.03;;;2.25;;
71790;SDS011;59638;52.126;5.434;2023-06-10T01:31:41;6.10;;;2.00;;
71790;SDS011;59638;52.126;5.434;2023-06-10T01:34:29;5.07;;;2.33;;
71790;SDS011;59638;52.126;5.434;2023-06-10T01:36:57;4.13;;;2.03;;
71790;SDS011;59638;52.126;5.434;2023-06-10T01:39:24;6.95;;;2.28;;
71790;SDS011;59638;52.126;5.434;2023-06-10T01:41:51;4.25;;;2.78;;
71790;SDS011;59638;52.126;5.434;2023-06-10T01:44:19;4.82;;;2.00;;
71790;SDS011;59638;52.126;5.434;2023-06-10T01:46:49;5.73;;;2.27;;
71790;SDS011;59638;52.126;5.434;2023-06-10T01:49:16;4.93;;;1.92;;
71790;SDS011;59638;52.126;5.434;2023-06-10T01:51:42;4.88;;;1.95;;
71790;SDS011;59638;52.126;5.434;2023-06-10T01:54:09;5.13;;;1.90;;
71790;SDS011;59638;52.126;5.434;2023-06-10T01:56:35;4.63;;;2.25;;
71790;SDS011;59638;52.126;5.434;2023-06-10T01:59:01;5.23;;;3.13;;
71790;SDS011;59638;52.126;5.434;2023-06-10T02:01:28;3.20;;;2.38;;
71790;SDS011;59638;52.126;5.434;2023-06-10T02:03:55;3.33;;;1.90;;
71790;SDS011;59638;52.126;5.434;2023-06-10T02:06:22;4.50;;;2.13;;
71790;SDS011;59638;52.126;5.434;2023-06-10T02:08:48;2.60;;;1.73;;
71790;SDS011;59638;52.126;5.434;2023-06-10T02:11:14;2.80;;;1.97;;
71790;SDS011;59638;52.126;5.434;2023-06-10T02:13:41;4.55;;;2.00;;
71790;SDS011;59638;52.126;5.434;2023-06-10T02:16:07;5.22;;;2.10;;
71790;SDS011;59638;52.126;5.434;2023-06-10T02:18:35;3.28;;;2.00;;
71790;SDS011;59638;52.126;5.434;2023-06-10T02:21:01;4.85;;;1.95;;
71790;SDS011;59638;52.126;5.434;2023-06-10T02:23:28;4.07;;;2.03;;
71790;SDS011;59638;52.126;5.434;2023-06-10T02:25:54;4.97;;;1.88;;
71790;SDS011;59638;52.126;5.434;2023-06-10T02:28:21;3.63;;;2.25;;
71790;SDS011;59638;52.126;5.434;2023-06-10T02:30:48;2.95;;;2.00;;
71790;SDS011;59638;52.126;5.434;2023-06-10T02:33:14;2.50;;;1.80;;
71790;SDS011;59638;52.126;5.434;2023-06-10T02:35:41;2.30;;;1.53;;
71790;SDS011;59638;52.126;5.434;2023-06-10T02:38:07;3.90;;;2.28;;
71790;SDS011;59638;52.126;5.434;2023-06-10T02:40:34;4.28;;;1.95;;
71790;SDS011;59638;52.126;5.434;2023-06-10T02:43:00;4.85;;;1.80;;
71790;SDS011;59638;52.126;5.434;2023-06-10T02:45:26;3.53;;;2.10;;
71790;SDS011;59638;52.126;5.434;2023-06-10T02:47:53;2.93;;;1.90;;
71790;SDS011;59638;52.126;5.434;2023-06-10T02:50:19;3.80;;;1.88;;
71790;SDS011;59638;52.126;5.434;2023-06-10T02:52:46;5.30;;;1.92;;
71790;SDS011;59638;52.126;5.434;2023-06-10T02:55:12;4.20;;;1.83;;
71790;SDS011;59638;52.126;5.434;2023-06-10T02:57:39;6.32;;;1.80;;
71790;SDS011;59638;52.126;5.434;2023-06-10T03:00:06;4.20;;;2.17;;
71790;SDS011;59638;52.126;5.434;2023-06-10T03:02:39;9.10;;;2.38;;
71790;SDS011;59638;52.126;5.434;2023-06-10T03:05:06;7.97;;;2.10;;
71790;SDS011;59638;52.126;5.434;2023-06-10T03:07:37;4.65;;;2.13;;
71790;SDS011;59638;52.126;5.434;2023-06-10T03:10:03;4.05;;;2.00;;
71790;SDS011;59638;52.126;5.434;2023-06-10T03:12:32;8.30;;;2.43;;
71790;SDS011;59638;52.126;5.434;2023-06-10T03:14:58;5.65;;;2.22;;
71790;SDS011;59638;52.126;5.434;2023-06-10T03:17:25;3.70;;;2.28;;
71790;SDS011;59638;52.126;5.434;2023-06-10T03:19:51;3.85;;;1.67;;
71790;SDS011;59638;52.126;5.434;2023-06-10T03:22:18;2.80;;;1.85;;
71790;SDS011;59638;52.126;5.434;2023-06-10T03:24:44;2.90;;;1.83;;
71790;SDS011;59638;52.126;5.434;2023-06-10T03:27:12;6.72;;;2.95;;
71790;SDS011;59638;52.126;5.434;2023-06-10T03:29:39;7.03;;;2.38;;
71790;SDS011;59638;52.126;5.434;2023-06-10T03:32:06;4.63;;;2.28;;
71790;SDS011;59638;52.126;5.434;2023-06-10T03:34:33;2.28;;;1.30;;
71790;SDS011;59638;52.126;5.434;2023-06-10T03:36:59;3.47;;;2.00;;
71790;SDS011;59638;52.126;5.434;2023-06-10T03:39:26;4.72;;;2.30;;
71790;SDS011;59638;52.126;5.434;2023-06-10T03:41:55;4.07;;;1.92;;
71790;SDS011;59638;52.126;5.434;2023-06-10T03:44:24;7.10;;;2.15;;
71790;SDS011;59638;52.126;5.434;2023-06-10T03:46:52;4.32;;;2.40;;
71790;SDS011;59638;52.126;5.434;2023-06-10T03:49:19;5.40;;;1.97;;
71790;SDS011;59638;52.126;5.434;2023-06-10T03:51:45;5.95;;;2.38;;
71790;SDS011;59638;52.126;5.434;2023-06-10T03:54:12;3.45;;;2.20;;
71790;SDS011;59638;52.126;5.434;2023-06-10T03:56:38;6.20;;;2.50;;
71790;SDS011;59638;52.126;5.434;2023-06-10T03:59:05;4.05;;;2.00;;
71790;SDS011;59638;52.126;5.434;2023-06-10T04:01:32;3.73;;;1.83;;
71790;SDS011;59638;52.126;5.434;2023-06-10T04:03:59;4.40;;;2.25;;
71790;SDS011;59638;52.126;5.434;2023-06-10T04:06:27;4.60;;;2.20;;
71790;SDS011;59638;52.126;5.434;2023-06-10T04:08:55;6.05;;;1.92;;
71790;SDS011;59638;52.126;5.434;2023-06-10T04:11:25;3.90;;;2.33;;
71790;SDS011;59638;52.126;5.434;2023-06-10T04:13:52;4.97;;;2.10;;
71790;SDS011;59638;52.126;5.434;2023-06-10T04:16:18;5.38;;;2.65;;
71790;SDS011;59638;52.126;5.434;2023-06-10T04:18:47;5.35;;;2.25;;
71790;SDS011;59638;52.126;5.434;2023-06-10T04:21:13;3.03;;;2.35;;
71790;SDS011;59638;52.126;5.434;2023-06-10T04:23:40;4.65;;;2.47;;
71790;SDS011;59638;52.126;5.434;2023-06-10T04:26:06;4.63;;;2.70;;
71790;SDS011;59638;52.126;5.434;2023-06-10T04:28:33;3.78;;;2.25;;
71790;SDS011;59638;52.126;5.434;2023-06-10T04:31:00;6.70;;;2.45;;
71790;SDS011;59638;52.126;5.434;2023-06-10T04:33:27;4.05;;;2.92;;
71790;SDS011;59638;52.126;5.434;2023-06-10T04:35:54;4.93;;;2.17;;
71790;SDS011;59638;52.126;5.434;2023-06-10T04:38:20;5.80;;;2.40;;
71790;SDS011;59638;52.126;5.434;2023-06-10T04:40:47;7.28;;;2.38;;
71790;SDS011;59638;52.126;5.434;2023-06-10T04:43:14;3.65;;;2.47;;
71790;SDS011;59638;52.126;5.434;2023-06-10T04:45:40;3.47;;;2.60;;
71790;SDS011;59638;52.126;5.434;2023-06-10T04:48:11;5.82;;;3.10;;
71790;SDS011;59638;52.126;5.434;2023-06-10T04:50:37;4.77;;;2.67;;
71790;SDS011;59638;52.126;5.434;2023-06-10T04:53:05;3.83;;;2.72;;
71790;SDS011;59638;52.126;5.434;2023-06-10T04:55:32;7.40;;;2.50;;
71790;SDS011;59638;52.126;5.434;2023-06-10T04:58:00;3.88;;;2.58;;
71790;SDS011;59638;52.126;5.434;2023-06-10T05:00:26;2.72;;;2.33;;
71790;SDS011;59638;52.126;5.434;2023-06-10T05:02:53;5.73;;;2.87;;
71790;SDS011;59638;52.126;5.434;2023-06-10T05:05:19;4.68;;;2.70;;
71790;SDS011;59638;52.126;5.434;2023-06-10T05:07:46;3.00;;;2.47;;
71790;SDS011;59638;52.126;5.434;2023-06-10T05:10:12;5.70;;;2.75;;
71790;SDS011;59638;52.126;5.434;2023-06-10T05:12:40;6.97;;;2.95;;
71790;SDS011;59638;52.126;5.434;2023-06-10T05:15:07;4.30;;;3.03;;
71790;SDS011;59638;52.126;5.434;2023-06-10T05:17:35;3.92;;;2.88;;
71790;SDS011;59638;52.126;5.434;2023-06-10T05:20:02;6.82;;;2.45;;
71790;SDS011;59638;52.126;5.434;2023-06-10T05:22:29;3.80;;;2.22;;
71790;SDS011;59638;52.126;5.434;2023-06-10T05:24:55;3.05;;;2.15;;
71790;SDS011;59638;52.126;5.434;2023-06-10T05:27:22;3.10;;;2.77;;
71790;SDS011;59638;52.126;5.434;2023-06-10T05:29:48;6.97;;;2.83;;
71790;SDS011;59638;52.126;5.434;2023-06-10T05:32:15;7.63;;;3.03;;
71790;SDS011;59638;52.126;5.434;2023-06-10T05:34:42;8.27;;;3.00;;
71790;SDS011;59638;52.126;5.434;2023-06-10T05:37:08;4.28;;;3.17;;
71790;SDS011;59638;52.126;5.434;2023-06-10T05:39:35;5.43;;;2.97;;
71790;SDS011;59638;52.126;5.434;2023-06-10T05:42:04;5.03;;;2.83;;
71790;SDS011;59638;52.126;5.434;2023-06-10T05:44:34;43.28;;;5.65;;
71790;SDS011;59638;52.126;5.434;2023-06-10T05:47:01;15.73;;;3.55;;
71790;SDS011;59638;52.126;5.434;2023-06-10T05:49:27;4.55;;;2.92;;
71790;SDS011;59638;52.126;5.434;2023-06-10T05:51:54;14.93;;;2.87;;
71790;SDS011;59638;52.126;5.434;2023-06-10T05:54:22;7.40;;;2.83;;
71790;SDS011;59638;52.126;5.434;2023-06-10T05:56:48;6.85;;;2.45;;
71790;SDS011;59638;52.126;5.434;2023-06-10T05:59:15;9.40;;;3.20;;
71790;SDS011;59638;52.126;5.434;2023-06-10T06:01:41;5.63;;;3.22;;
71790;SDS011;59638;52.126;5.434;2023-06-10T06:04:07;5.17;;;2.60;;
71790;SDS011;59638;52.126;5.434;2023-06-10T06:06:34;5.38;;;2.60;;
71790;SDS011;59638;52.126;5.434;2023-06-10T06:09:01;4.03;;;2.83;;
71790;SDS011;59638;52.126;5.434;2023-06-10T06:11:28;3.42;;;2.75;;
71790;SDS011;59638;52.126;5.434;2023-06-10T06:13:55;3.70;;;2.92;;
71790;SDS011;59638;52.126;5.434;2023-06-10T06:16:22;3.40;;;2.70;;
71790;SDS011;59638;52.126;5.434;2023-06-10T06:18:48;3.00;;;2.70;;
71790;SDS011;59638;52.126;5.434;2023-06-10T06:21:15;6.78;;;3.10;;
71790;SDS011;59638;52.126;5.434;2023-06-10T06:23:41;6.97;;;3.20;;
71790;SDS011;59638;52.126;5.434;2023-06-10T06:26:08;7.25;;;2.58;;
71790;SDS011;59638;52.126;5.434;2023-06-10T06:28:34;5.83;;;2.67;;
71790;SDS011;59638;52.126;5.434;2023-06-10T06:31:01;5.30;;;3.55;;
71790;SDS011;59638;52.126;5.434;2023-06-10T06:33:28;5.68;;;2.72;;
71790;SDS011;59638;52.126;5.434;2023-06-10T06:35:55;3.65;;;2.88;;
71790;SDS011;59638;52.126;5.434;2023-06-10T06:38:21;5.07;;;2.83;;
71790;SDS011;59638;52.126;5.434;2023-06-10T06:40:48;6.00;;;2.80;;
71790;SDS011;59638;52.126;5.434;2023-06-10T06:43:14;4.70;;;2.80;;
71790;SDS011;59638;52.126;5.434;2023-06-10T06:45:41;7.43;;;2.38;;
71790;SDS011;59638;52.126;5.434;2023-06-10T06:48:07;4.30;;;2.78;;
71790;SDS011;59638;52.126;5.434;2023-06-10T06:50:34;3.78;;;2.88;;
71790;SDS011;59638;52.126;5.434;2023-06-10T06:53:00;10.87;;;2.90;;
71790;SDS011;59638;52.126;5.434;2023-06-10T06:55:27;6.88;;;2.83;;
71790;SDS011;59638;52.126;5.434;2023-06-10T06:57:53;5.55;;;2.83;;
71790;SDS011;59638;52.126;5.434;2023-06-10T07:00:20;6.43;;;2.53;;
71790;SDS011;59638;52.126;5.434;2023-06-10T07:02:46;6.95;;;2.78;;
71790;SDS011;59638;52.126;5.434;2023-06-10T07:05:13;4.27;;;2.50;;
71790;SDS011;59638;52.126;5.434;2023-06-10T07:07:39;4.85;;;3.10;;
71790;SDS011;59638;52.126;5.434;2023-06-10T07:10:06;6.03;;;3.13;;
71790;SDS011;59638;52.126;5.434;2023-06-10T07:12:33;5.65;;;2.25;;
71790;SDS011;59638;52.126;5.434;2023-06-10T07:14:59;6.68;;;2.50;;
71790;SDS011;59638;52.126;5.434;2023-06-10T07:17:26;5.30;;;2.60;;
71790;SDS011;59638;52.126;5.434;2023-06-10T07:19:53;3.03;;;2.30;;
71790;SDS011;59638;52.126;5.434;2023-06-10T07:22:23;10.15;;;2.50;;
71790;SDS011;59638;52.126;5.434;2023-06-10T07:24:49;9.45;;;2.90;;
71790;SDS011;59638;52.126;5.434;2023-06-10T07:27:17;5.35;;;3.65;;
71790;SDS011;59638;52.126;5.434;2023-06-10T07:29:44;4.40;;;3.00;;
71790;SDS011;59638;52.126;5.434;2023-06-10T07:32:10;4.60;;;2.88;;
71790;SDS011;59638;52.126;5.434;2023-06-10T07:34:37;3.95;;;2.95;;
71790;SDS011;59638;52.126;5.434;2023-06-10T07:37:03;7.38;;;2.95;;
71790;SDS011;59638;52.126;5.434;2023-06-10T07:39:30;9.27;;;3.90;;
71790;SDS011;59638;52.126;5.434;2023-06-10T07:41:56;3.43;;;2.70;;
71790;SDS011;59638;52.126;5.434;2023-06-10T07:44:23;8.85;;;3.33;;
71790;SDS011;59638;52.126;5.434;2023-06-10T07:46:50;6.22;;;3.47;;
71790;SDS011;59638;52.126;5.434;2023-06-10T07:49:16;6.35;;;3.58;;
71790;SDS011;59638;52.126;5.434;2023-06-10T07:51:43;4.60;;;3.80;;
71790;SDS011;59638;52.126;5.434;2023-06-10T07:54:10;4.57;;;3.47;;
71790;SDS011;59638;52.126;5.434;2023-06-10T07:56:38;4.45;;;4.05;;
71790;SDS011;59638;52.126;5.434;2023-06-10T07:59:05;8.40;;;4.00;;
71790;SDS011;59638;52.126;5.434;2023-06-10T08:01:32;6.90;;;3.97;;
71790;SDS011;59638;52.126;5.434;2023-06-10T08:03:59;3.47;;;3.17;;
71790;SDS011;59638;52.126;5.434;2023-06-10T08:06:25;4.83;;;3.70;;
71790;SDS011;59638;52.126;5.434;2023-06-10T08:08:52;7.28;;;4.25;;
71790;SDS011;59638;52.126;5.434;2023-06-10T08:11:18;3.92;;;3.63;;
71790;SDS011;59638;52.126;5.434;2023-06-10T08:13:45;3.60;;;3.00;;
71790;SDS011;59638;52.126;5.434;2023-06-10T08:16:11;5.57;;;3.35;;
71790;SDS011;59638;52.126;5.434;2023-06-10T08:18:38;5.27;;;3.97;;
71790;SDS011;59638;52.126;5.434;2023-06-10T08:21:04;7.75;;;3.67;;
71790;SDS011;59638;52.126;5.434;2023-06-10T08:23:31;4.20;;;3.80;;
71790;SDS011;59638;52.126;5.434;2023-06-10T08:25:57;4.13;;;3.83;;
71790;SDS011;59638;52.126;5.434;2023-06-10T08:28:24;5.65;;;4.30;;
71790;SDS011;59638;52.126;5.434;2023-06-10T08:30:50;5.40;;;4.17;;
71790;SDS011;59638;52.126;5.434;2023-06-10T08:33:17;4.63;;;4.18;;
71790;SDS011;59638;52.126;5.434;2023-06-10T08:35:44;12.82;;;3.95;;
71790;SDS011;59638;52.126;5.434;2023-06-10T08:38:10;10.40;;;4.00;;
71790;SDS011;59638;52.126;5.434;2023-06-10T08:40:37;60.40;;;8.15;;
71790;SDS011;59638;52.126;5.434;2023-06-10T08:43:07;6.70;;;4.10;;
71790;SDS011;59638;52.126;5.434;2023-06-10T08:45:36;5.95;;;4.28;;
71790;SDS011;59638;52.126;5.434;2023-06-10T08:48:03;5.63;;;3.80;;
71790;SDS011;59638;52.126;5.434;2023-06-10T08:50:36;4.20;;;3.90;;
71790;SDS011;59638;52.126;5.434;2023-06-10T08:53:04;3.97;;;3.33;;
71790;SDS011;59638;52.126;5.434;2023-06-10T08:55:32;5.37;;;3.97;;
71790;SDS011;59638;52.126;5.434;2023-06-10T08:58:02;7.82;;;3.90;;
71790;SDS011;59638;52.126;5.434;2023-06-10T09:00:30;3.58;;;3.28;;
71790;SDS011;59638;52.126;5.434;2023-06-10T09:02:57;4.10;;;3.80;;
71790;SDS011;59638;52.126;5.434;2023-06-10T09:05:32;7.10;;;4.78;;
71790;SDS011;59638;52.126;5.434;2023-06-10T09:07:59;3.30;;;3.07;;
71790;SDS011;59638;52.126;5.434;2023-06-10T09:10:27;7.75;;;3.10;;
71790;SDS011;59638;52.126;5.434;2023-06-10T09:12:53;4.72;;;3.35;;
71790;SDS011;59638;52.126;5.434;2023-06-10T09:15:20;3.78;;;3.33;;
71790;SDS011;59638;52.126;5.434;2023-06-10T09:17:46;4.63;;;4.05;;
71790;SDS011;59638;52.126;5.434;2023-06-10T09:20:13;5.00;;;4.23;;
71790;SDS011;59638;52.126;5.434;2023-06-10T09:22:41;4.25;;;3.95;;
71790;SDS011;59638;52.126;5.434;2023-06-10T09:25:09;3.78;;;3.55;;
71790;SDS011;59638;52.126;5.434;2023-06-10T09:27:47;3.80;;;3.50;;
71790;SDS011;59638;52.126;5.434;2023-06-10T09:30:29;7.03;;;3.50;;
71790;SDS011;59638;52.126;5.434;2023-06-10T09:32:57;4.77;;;3.43;;
71790;SDS011;59638;52.126;5.434;2023-06-10T09:35:26;3.92;;;2.78;;
71790;SDS011;59638;52.126;5.434;2023-06-10T09:37:55;6.00;;;3.33;;
71790;SDS011;59638;52.126;5.434;2023-06-10T09:40:23;4.60;;;3.90;;
71790;SDS011;59638;52.126;5.434;2023-06-10T09:42:54;7.50;;;3.63;;
71790;SDS011;59638;52.126;5.434;2023-06-10T09:45:30;3.83;;;3.43;;
71790;SDS011;59638;52.126;5.434;2023-06-10T09:48:00;4.43;;;3.85;;
71790;SDS011;59638;52.126;5.434;2023-06-10T09:50:27;4.15;;;3.38;;
71790;SDS011;59638;52.126;5.434;2023-06-10T09:52:54;3.65;;;3.30;;
71790;SDS011;59638;52.126;5.434;2023-06-10T09:55:20;3.28;;;2.95;;
71790;SDS011;59638;52.126;5.434;2023-06-10T09:57:49;3.90;;;3.43;;
71790;SDS011;59638;52.126;5.434;2023-06-10T10:00:15;4.03;;;3.65;;
71790;SDS011;59638;52.126;5.434;2023-06-10T10:02:44;5.10;;;3.72;;
71790;SDS011;59638;52.126;5.434;2023-06-10T10:05:12;4.00;;;3.55;;
71790;SDS011;59638;52.126;5.434;2023-06-10T10:07:41;2.90;;;2.67;;
71790;SDS011;59638;52.126;5.434;2023-06-10T10:10:09;4.10;;;3.70;;
71790;SDS011;59638;52.126;5.434;2023-06-10T10:12:39;4.82;;;3.03;;
71790;SDS011;59638;52.126;5.434;2023-06-10T10:15:07;5.55;;;3.25;;
71790;SDS011;59638;52.126;5.434;2023-06-10T10:17:37;5.00;;;3.22;;
71790;SDS011;59638;52.126;5.434;2023-06-10T10:20:12;3.22;;;2.92;;
71790;SDS011;59638;52.126;5.434;2023-06-10T10:22:41;3.73;;;3.33;;
71790;SDS011;59638;52.126;5.434;2023-06-10T10:25:22;4.00;;;3.30;;
71790;SDS011;59638;52.126;5.434;2023-06-10T10:27:57;2.85;;;2.65;;
71790;SDS011;59638;52.126;5.434;2023-06-10T10:30:28;6.40;;;2.58;;
71790;SDS011;59638;52.126;5.434;2023-06-10T10:32:57;4.93;;;3.25;;
71790;SDS011;59638;52.126;5.434;2023-06-10T10:35:27;3.23;;;2.60;;
71790;SDS011;59638;52.126;5.434;2023-06-10T10:37:54;2.85;;;2.65;;
71790;SDS011;59638;52.126;5.434;2023-06-10T10:40:22;5.40;;;3.28;;
71790;SDS011;59638;52.126;5.434;2023-06-10T10:42:51;5.57;;;2.40;;
71790;SDS011;59638;52.126;5.434;2023-06-10T10:45:18;3.05;;;2.70;;
71790;SDS011;59638;52.126;5.434;2023-06-10T10:47:48;4.57;;;2.60;;
71790;SDS011;59638;52.126;5.434;2023-06-10T10:50:20;4.97;;;2.67;;
71790;SDS011;59638;52.126;5.434;2023-06-10T10:52:59;6.45;;;2.90;;
71790;SDS011;59638;52.126;5.434;2023-06-10T10:55:27;6.75;;;3.30;;
71790;SDS011;59638;52.126;5.434;2023-06-10T10:57:55;4.68;;;3.05;;
71790;SDS011;59638;52.126;5.434;2023-06-10T11:00:29;3.23;;;2.80;;
71790;SDS011;59638;52.126;5.434;2023-06-10T11:02:58;4.05;;;3.75;;
71790;SDS011;59638;52.126;5.434;2023-06-10T11:05:51;5.32;;;3.65;;
71790;SDS011;59638;52.126;5.434;2023-06-10T11:10:55;3.95;;;3.22;;
71790;SDS011;59638;52.126;5.434;2023-06-10T11:13:22;3.87;;;2.53;;
71790;SDS011;59638;52.126;5.434;2023-06-10T11:15:49;2.90;;;2.70;;
71790;SDS011;59638;52.126;5.434;2023-06-10T11:21:02;2.95;;;2.65;;
71790;SDS011;59638;52.126;5.434;2023-06-10T11:23:37;3.20;;;3.00;;
71790;SDS011;59638;52.126;5.434;2023-06-10T11:26:18;8.00;;;3.67;;
71790;SDS011;59638;52.126;5.434;2023-06-10T11:31:25;4.05;;;2.97;;
71790;SDS011;59638;52.126;5.434;2023-06-10T11:33:54;3.97;;;3.20;;
71790;SDS011;59638;52.126;5.434;2023-06-10T11:36:28;3.40;;;2.97;;
71790;SDS011;59638;52.126;5.434;2023-06-10T11:38:56;5.40;;;3.30;;
71790;SDS011;59638;52.126;5.434;2023-06-10T11:41:27;4.43;;;3.30;;
71790;SDS011;59638;52.126;5.434;2023-06-10T11:43:55;2.90;;;2.30;;
71790;SDS011;59638;52.126;5.434;2023-06-10T11:46:23;4.32;;;3.13;;
71790;SDS011;59638;52.126;5.434;2023-06-10T11:48:53;7.25;;;2.80;;
71790;SDS011;59638;52.126;5.434;2023-06-10T11:51:24;4.63;;;3.13;;
71790;SDS011;59638;52.126;5.434;2023-06-10T11:53:51;4.07;;;3.03;;
71790;SDS011;59638;52.126;5.434;2023-06-10T11:56:21;2.83;;;2.63;;
71790;SDS011;59638;52.126;5.434;2023-06-10T11:59:07;3.40;;;2.97;;
71790;SDS011;59638;52.126;5.434;2023-06-10T12:01:35;3.33;;;2.95;;
71790;SDS011;59638;52.126;5.434;2023-06-10T12:04:07;3.50;;;3.30;;
71790;SDS011;59638;52.126;5.434;2023-06-10T12:06:39;4.18;;;3.78;;
71790;SDS011;59638;52.126;5.434;2023-06-10T12:09:25;6.45;;;2.83;;
71790;SDS011;59638;52.126;5.434;2023-06-10T12:12:00;4.50;;;3.72;;
71790;SDS011;59638;52.126;5.434;2023-06-10T12:20:12;5.47;;;3.42;;
71790;SDS011;59638;52.126;5.434;2023-06-10T12:22:51;4.30;;;3.90;;
71790;SDS011;59638;52.126;5.434;2023-06-10T12:25:17;4.80;;;4.35;;
71790;SDS011;59638;52.126;5.434;2023-06-10T12:27:52;5.63;;;4.10;;
71790;SDS011;59638;52.126;5.434;2023-06-10T12:30:20;4.63;;;4.33;;
71790;SDS011;59638;52.126;5.434;2023-06-10T12:32:47;3.90;;;3.70;;
71790;SDS011;59638;52.126;5.434;2023-06-10T12:35:16;5.72;;;3.70;;
71790;SDS011;59638;52.126;5.434;2023-06-10T12:40:31;3.80;;;3.35;;
71790;SDS011;59638;52.126;5.434;2023-06-10T12:42:59;4.67;;;3.50;;
71790;SDS011;59638;52.126;5.434;2023-06-10T12:45:30;4.70;;;4.40;;
71790;SDS011;59638;52.126;5.434;2023-06-10T12:48:07;6.32;;;4.30;;
71790;SDS011;59638;52.126;5.434;2023-06-10T12:50:36;6.53;;;3.30;;
71790;SDS011;59638;52.126;5.434;2023-06-10T12:53:06;4.28;;;3.83;;
71790;SDS011;59638;52.126;5.434;2023-06-10T12:55:33;4.17;;;3.87;;
71790;SDS011;59638;52.126;5.434;2023-06-10T12:58:00;8.88;;;4.30;;
71790;SDS011;59638;52.126;5.434;2023-06-10T13:00:27;3.80;;;3.50;;
71790;SDS011;59638;52.126;5.434;2023-06-10T13:02:59;3.28;;;3.03;;
71790;SDS011;59638;52.126;5.434;2023-06-10T13:05:27;4.50;;;3.75;;
71790;SDS011;59638;52.126;5.434;2023-06-10T13:07:55;3.77;;;3.37;;
71790;SDS011;59638;52.126;5.434;2023-06-10T13:10:22;4.55;;;3.08;;
71790;SDS011;59638;52.126;5.434;2023-06-10T13:12:51;8.15;;;3.20;;
71790;SDS011;59638;52.126;5.434;2023-06-10T13:15:18;4.43;;;4.03;;
71790;SDS011;59638;52.126;5.434;2023-06-10T13:17:45;6.05;;;3.10;;
71790;SDS011;59638;52.126;5.434;2023-06-10T13:20:15;2.90;;;2.60;;
71790;SDS011;59638;52.126;5.434;2023-06-10T13:22:42;2.70;;;2.50;;
71790;SDS011;59638;52.126;5.434;2023-06-10T13:25:09;3.65;;;2.88;;
71790;SDS011;59638;52.126;5.434;2023-06-10T13:27:36;6.32;;;3.10;;
71790;SDS011;59638;52.126;5.434;2023-06-10T13:30:08;6.30;;;3.00;;
71790;SDS011;59638;52.126;5.434;2023-06-10T13:32:36;2.57;;;2.37;;
71790;SDS011;59638;52.126;5.434;2023-06-10T13:35:03;4.57;;;2.83;;
71790;SDS011;59638;52.126;5.434;2023-06-10T13:37:30;5.28;;;2.63;;
71790;SDS011;59638;52.126;5.434;2023-06-10T13:39:57;3.33;;;3.03;;
71790;SDS011;59638;52.126;5.434;2023-06-10T13:42:23;4.72;;;2.58;;
71790;SDS011;59638;52.126;5.434;2023-06-10T13:44:52;4.97;;;2.40;;
71790;SDS011;59638;52.126;5.434;2023-06-10T13:47:18;3.42;;;2.78;;
71790;SDS011;59638;52.126;5.434;2023-06-10T13:49:45;4.65;;;2.28;;
71790;SDS011;59638;52.126;5.434;2023-06-10T13:52:12;4.20;;;3.30;;
71790;SDS011;59638;52.126;5.434;2023-06-10T13:54:39;3.42;;;3.13;;
71790;SDS011;59638;52.126;5.434;2023-06-10T13:57:05;3.20;;;2.47;;
71790;SDS011;59638;52.126;5.434;2023-06-10T13:59:32;3.65;;;2.65;;
71790;SDS011;59638;52.126;5.434;2023-06-10T14:01:58;5.93;;;3.10;;
71790;SDS011;59638;52.126;5.434;2023-06-10T14:04:25;3.95;;;2.17;;
71790;SDS011;59638;52.126;5.434;2023-06-10T14:06:51;6.05;;;2.40;;
71790;SDS011;59638;52.126;5.434;2023-06-10T14:09:18;4.63;;;2.50;;
71790;SDS011;59638;52.126;5.434;2023-06-10T14:11:45;2.55;;;2.35;;
71790;SDS011;59638;52.126;5.434;2023-06-10T14:14:11;4.88;;;2.22;;
71790;SDS011;59638;52.126;5.434;2023-06-10T14:16:38;5.25;;;2.80;;
71790;SDS011;59638;52.126;5.434;2023-06-10T14:19:08;3.55;;;2.28;;
71790;SDS011;59638;52.126;5.434;2023-06-10T14:21:35;4.93;;;2.67;;
71790;SDS011;59638;52.126;5.434;2023-06-10T14:24:01;2.92;;;2.33;;
71790;SDS011;59638;52.126;5.434;2023-06-10T14:26:28;2.53;;;2.20;;
71790;SDS011;59638;52.126;5.434;2023-06-10T14:28:55;3.88;;;2.50;;
71790;SDS011;59638;52.126;5.434;2023-06-10T14:31:21;3.58;;;2.80;;
71790;SDS011;59638;52.126;5.434;2023-06-10T14:33:48;3.27;;;2.60;;
71790;SDS011;59638;52.126;5.434;2023-06-10T14:36:14;2.60;;;2.05;;
71790;SDS011;59638;52.126;5.434;2023-06-10T14:38:40;4.00;;;2.10;;
71790;SDS011;59638;52.126;5.434;2023-06-10T14:41:07;3.50;;;2.83;;
71790;SDS011;59638;52.126;5.434;2023-06-10T14:43:33;5.13;;;2.25;;
71790;SDS011;59638;52.126;5.434;2023-06-10T14:46:00;3.33;;;3.03;;
71790;SDS011;59638;52.126;5.434;2023-06-10T14:48:26;2.97;;;2.75;;
71790;SDS011;59638;52.126;5.434;2023-06-10T14:50:53;2.53;;;2.15;;
71790;SDS011;59638;52.126;5.434;2023-06-10T14:53:21;3.40;;;2.45;;
71790;SDS011;59638;52.126;5.434;2023-06-10T14:55:47;3.05;;;1.90;;
71790;SDS011;59638;52.126;5.434;2023-06-10T14:58:14;3.90;;;2.73;;
71790;SDS011;59638;52.126;5.434;2023-06-10T15:00:40;2.95;;;2.25;;
71790;SDS011;59638;52.126;5.434;2023-06-10T15:03:07;3.35;;;2.78;;
71790;SDS011;59638;52.126;5.434;2023-06-10T15:05:33;3.00;;;1.90;;
71790;SDS011;59638;52.126;5.434;2023-06-10T15:08:00;2.60;;;2.30;;